Time;durP1;ratioP1;P1;durP2;ratioP2;P2;SDS_P1;SDS_P2;PMS_P1;PMS_P2;Temp;Humidity;BMP_temperature;BMP_pressure;BME280_temperature;BME280_humidity;BME280_pressure;Samples;Min_cycle;Max_cycle;Signal;HPM_P1;HPM_P2
2022/08/21 00:00:10;;;;;;;;;;;;;;;;;;2114847;28;20326;-46
2022/08/21 00:01:11;;;;;;;;;;;;;;;;;;2114646;28;19931;-44
2022/08/21 00:02:12;;;;;;;;;;;;;;;;;;2114757;28;20380;-44
2022/08/21 00:03:13;;;;;;;;;;;;;;;;;;2114615;28;20178;-45
2022/08/21 00:04:13;;;;;;;;;;;;;;;;;;2114686;28;20513;-44
2022/08/21 00:05:15;;;;;;;;;;;;;;;;;;2114665;28;19984;-44
2022/08/21 00:06:15;;;;;;;;;;;;;;;;;;2114548;28;19923;-44
2022/08/21 00:07:16;;;;;;;;;;;;;;;;;;2114801;28;19924;-45
2022/08/21 00:08:17;;;;;;;;;;;;;;;;;;2114533;28;20010;-46
2022/08/21 00:09:18;;;;;;;;;;;;;;;;;;2114740;28;19931;-45
2022/08/21 00:10:19;;;;;;;;;;;;;;;;;;2114637;28;19924;-47
2022/08/21 00:11:20;;;;;;;;;;;;;;;;;;2111545;28;19967;-45
2022/08/21 00:12:21;;;;;;;;;;;;;;;;;;2106093;28;20043;-45
2022/08/21 00:13:22;;;;;;;;;;;;;;;;;;2106508;28;20045;-46
2022/08/21 00:14:22;;;;;;;;;;;;;;;;;;2106253;28;20284;-44
2022/08/21 00:15:23;;;;;;;;;;;;;;;;;;2104899;28;19924;-45
2022/08/21 00:16:24;;;;;;;;;;;;;;;;;;2106336;28;19966;-44
2022/08/21 00:17:25;;;;;;;;;;;;;;;;;;2106182;28;20014;-46
2022/08/21 00:18:26;;;;;;;;;;;;;;;;;;2106406;28;20288;-44
2022/08/21 00:19:27;;;;;;;;;;;;;;;;;;2106163;28;19977;-45
2022/08/21 00:20:27;;;;;;;;;;;;;;;;;;2111956;28;19927;-44
2022/08/21 00:21:28;;;;;;;;;;;;;;;;;;2114376;28;19923;-46
2022/08/21 00:22:29;;;;;;;;;;;;;;;;;;2114554;28;19930;-45
2022/08/21 00:23:30;;;;;;;;;;;;;;;;;;2114622;28;19923;-44
2022/08/21 00:24:31;;;;;;;;;;;;;;;;;;2114606;28;19924;-46
2022/08/21 00:25:32;;;;;;;;;;;;;;;;;;2114579;28;20392;-44
2022/08/21 00:26:33;;;;;;;;;;;;;;;;;;2114429;28;19973;-46
2022/08/21 00:27:34;;;;;;;;;;;;;;;;;;2114487;28;19955;-44
2022/08/21 00:28:35;;;;;;;;;;;;;;;;;;2114444;28;20359;-45
2022/08/21 00:29:35;;;;;;;;;;;;;;;;;;2114630;28;20019;-48
2022/08/21 00:30:36;;;;;;;;;;;;;;;;;;2114569;28;19924;-45
2022/08/21 00:31:37;;;;;;;;;;;;;;;;;;2114760;28;20002;-44
2022/08/21 00:32:38;;;;;;;;;;;;;;;;;;2114439;28;20603;-44
2022/08/21 00:33:39;;;;;;;;;;;;;;;;;;2114722;28;20085;-44
2022/08/21 00:34:40;;;;;;;;;;;;;;;;;;2114630;28;19997;-45
2022/08/21 00:35:41;;;;;;;;;;;;;;;;;;2114659;28;20003;-49
2022/08/21 00:36:41;;;;;;;;;;;;;;;;;;2114395;28;19927;-45
2022/08/21 00:37:42;;;;;;;;;;;;;;;;;;2114528;28;19959;-46
2022/08/21 00:38:43;;;;;;;;;;;;;;;;;;2114594;28;19930;-45
2022/08/21 00:39:44;;;;;;;;;;;;;;;;;;2114565;28;19927;-44
2022/08/21 00:40:45;;;;;;;;;;;;;;;;;;2114481;28;19959;-45
2022/08/21 00:41:46;;;;;;;;;;;;;;;;;;2114334;28;20449;-45
2022/08/21 00:42:47;;;;;;;;;;;;;;;;;;2114466;28;20422;-45
2022/08/21 00:43:59;;;;;;;;;;;;;;;;;;2114595;28;20364;-45
2022/08/21 00:45:01;;;;;;;;;;;;;;;;;;2114630;28;19930;-45
2022/08/21 00:46:02;;;;;;;;;;;;;;;;;;2114514;28;20010;-44
2022/08/21 00:47:03;;;;;;;;;;;;;;;;;;2114482;28;20019;-44
2022/08/21 00:48:04;;;;;;;;;;;;;;;;;;2114554;28;20160;-46
2022/08/21 00:49:05;;;;;;;;;;;;;;;;;;2114274;28;20285;-45
2022/08/21 00:50:07;;;;;;;;;;;;;;;;;;2114402;28;20006;-46
2022/08/21 00:51:07;;;;;;;;;;;;;;;;;;2114330;28;19928;-45
2022/08/21 00:52:08;;;;;;;;;;;;;;;;;;2114345;28;19924;-45
2022/08/21 00:53:09;;;;;;;;;;;;;;;;;;2114459;28;19977;-44
2022/08/21 00:54:10;;;;;;;;;;;;;;;;;;2114403;28;19924;-44
2022/08/21 00:55:19;;;;;;;;;;;;;;;;;;2114412;28;19924;-46
2022/08/21 00:56:20;;;;;;;;;;;;;;;;;;2114330;28;20393;-45
2022/08/21 00:57:21;;;;;;;;;;;;;;;;;;2114451;28;19938;-45
2022/08/21 00:58:22;;;;;;;;;;;;;;;;;;2114413;28;19955;-45
2022/08/21 00:59:22;;;;;;;;;;;;;;;;;;2114303;28;20327;-45
2022/08/21 01:00:23;;;;;;;;;;;;;;;;;;2114402;28;19931;-44
2022/08/21 01:01:24;;;;;;;;;;;;;;;;;;2114440;28;20285;-44
2022/08/21 01:02:25;;;;;;;;;;;;;;;;;;2114276;28;19928;-47
2022/08/21 01:03:26;;;;;;;;;;;;;;;;;;2114398;28;19963;-46
2022/08/21 01:04:27;;;;;;;;;;;;;;;;;;2114349;28;19924;-45
2022/08/21 01:05:28;;;;;;;;;;;;;;;;;;2114354;28;20412;-45
2022/08/21 01:06:28;;;;;;;;;;;;;;;;;;2114243;28;20373;-47
2022/08/21 01:07:30;;;;;;;;;;;;;;;;;;2114365;28;19985;-48
2022/08/21 01:08:30;;;;;;;;;;;;;;;;;;2114335;28;19924;-48
2022/08/21 01:09:31;;;;;;;;;;;;;;;;;;2114598;28;19925;-45
2022/08/21 01:10:33;;;;;;;;;;;;;;;;;;2114359;28;20467;-45
2022/08/21 01:11:34;;;;;;;;;;;;;;;;;;2109109;28;20015;-46
2022/08/21 01:12:35;;;;;;;;;;;;;;;;;;2105916;28;19951;-45
2022/08/21 01:13:36;;;;;;;;;;;;;;;;;;2106046;28;19942;-48
2022/08/21 01:14:36;;;;;;;;;;;;;;;;;;2106061;28;19935;-46
2022/08/21 01:15:37;;;;;;;;;;;;;;;;;;2105859;28;19947;-44
2022/08/21 01:16:38;;;;;;;;;;;;;;;;;;2110952;28;19963;-45
2022/08/21 01:17:39;;;;;;;;;;;;;;;;;;2114284;28;19923;-45
2022/08/21 01:18:40;;;;;;;;;;;;;;;;;;2114258;28;20376;-46
2022/08/21 01:19:41;;;;;;;;;;;;;;;;;;2114349;28;19966;-44
2022/08/21 01:20:42;;;;;;;;;;;;;;;;;;2114554;28;19967;-45
2022/08/21 01:21:42;;;;;;;;;;;;;;;;;;2114382;28;19976;-44
2022/08/21 01:22:44;;;;;;;;;;;;;;;;;;2114130;28;20044;-45
2022/08/21 01:23:45;;;;;;;;;;;;;;;;;;2114327;28;20387;-44
2022/08/21 01:24:46;;;;;;;;;;;;;;;;;;2114318;28;20014;-44
2022/08/21 01:25:47;;;;;;;;;;;;;;;;;;2114314;28;19931;-46
2022/08/21 01:26:48;;;;;;;;;;;;;;;;;;2114779;28;19924;-45
2022/08/21 01:27:49;;;;;;;;;;;;;;;;;;2116025;28;19931;-45
2022/08/21 01:28:49;;;;;;;;;;;;;;;;;;2115523;28;19931;-45
2022/08/21 01:29:50;;;;;;;;;;;;;;;;;;2115701;28;19924;-45
2022/08/21 01:30:51;;;;;;;;;;;;;;;;;;2115751;28;19923;-45
2022/08/21 01:31:52;;;;;;;;;;;;;;;;;;2115620;28;19924;-45
2022/08/21 01:32:53;;;;;;;;;;;;;;;;;;2115649;28;20384;-45
2022/08/21 01:33:54;;;;;;;;;;;;;;;;;;2115636;28;19931;-45
2022/08/21 01:34:55;;;;;;;;;;;;;;;;;;2115805;28;19928;-44
2022/08/21 01:35:56;;;;;;;;;;;;;;;;;;2115614;28;19930;-45
2022/08/21 01:36:56;;;;;;;;;;;;;;;;;;2115580;28;20022;-46
2022/08/21 01:37:57;;;;;;;;;;;;;;;;;;2115607;28;19962;-45
2022/08/21 01:38:58;;;;;;;;;;;;;;;;;;2115615;28;19923;-45
2022/08/21 01:39:59;;;;;;;;;;;;;;;;;;2115672;28;19963;-44
2022/08/21 01:41:00;;;;;;;;;;;;;;;;;;2115629;28;20396;-45
2022/08/21 01:42:01;;;;;;;;;;;;;;;;;;2115603;28;19924;-44
2022/08/21 01:43:02;;;;;;;;;;;;;;;;;;2115545;28;19930;-46
2022/08/21 01:44:03;;;;;;;;;;;;;;;;;;2115570;28;20022;-45
2022/08/21 01:45:04;;;;;;;;;;;;;;;;;;2115569;28;20303;-46
2022/08/21 01:46:05;;;;;;;;;;;;;;;;;;2115576;28;19927;-44
2022/08/21 01:47:06;;;;;;;;;;;;;;;;;;2115430;28;20020;-45
2022/08/21 01:48:08;;;;;;;;;;;;;;;;;;2115559;28;20277;-45
2022/08/21 01:49:08;;;;;;;;;;;;;;;;;;2115626;28;19970;-45
2022/08/21 01:50:09;;;;;;;;;;;;;;;;;;2115786;28;19934;-45
2022/08/21 01:51:10;;;;;;;;;;;;;;;;;;2115396;28;20237;-46
2022/08/21 01:52:11;;;;;;;;;;;;;;;;;;2115523;28;19923;-45
2022/08/21 01:53:13;;;;;;;;;;;;;;;;;;2115598;28;19933;-46
2022/08/21 01:54:14;;;;;;;;;;;;;;;;;;2115501;28;20014;-44
2022/08/21 01:55:15;;;;;;;;;;;;;;;;;;2115630;28;20301;-45
2022/08/21 01:56:16;;;;;;;;;;;;;;;;;;2115350;28;19930;-48
2022/08/21 01:57:16;;;;;;;;;;;;;;;;;;2115596;28;19990;-45
2022/08/21 01:58:17;;;;;;;;;;;;;;;;;;2115539;28;20014;-45
2022/08/21 01:59:18;;;;;;;;;;;;;;;;;;2115403;28;20400;-46
2022/08/21 02:00:19;;;;;;;;;;;;;;;;;;2115644;28;19930;-46
2022/08/21 02:01:20;;;;;;;;;;;;;;;;;;2115541;28;20031;-45
2022/08/21 02:02:21;;;;;;;;;;;;;;;;;;2115489;28;19967;-45
2022/08/21 02:03:21;;;;;;;;;;;;;;;;;;2115457;28;20280;-45
2022/08/21 02:04:32;;;;;;;;;;;;;;;;;;2115474;28;19924;-45
2022/08/21 02:05:33;;;;;;;;;;;;;;;;;;2115384;28;19924;-44
2022/08/21 02:06:34;;;;;;;;;;;;;;;;;;2115460;28;20284;-46
2022/08/21 02:07:35;;;;;;;;;;;;;;;;;;2115386;28;19928;-45
2022/08/21 02:08:36;;;;;;;;;;;;;;;;;;2115313;28;19924;-45
2022/08/21 02:09:36;;;;;;;;;;;;;;;;;;2115468;28;19976;-45
2022/08/21 02:10:37;;;;;;;;;;;;;;;;;;2115777;28;19924;-46
2022/08/21 02:11:40;;;;;;;;;;;;;;;;;;2109606;28;19924;-46
2022/08/21 02:12:41;;;;;;;;;;;;;;;;;;2110538;28;20003;-45
2022/08/21 02:13:41;;;;;;;;;;;;;;;;;;2115413;28;19934;-45
2022/08/21 02:14:42;;;;;;;;;;;;;;;;;;2115216;28;20010;-44
2022/08/21 02:15:43;;;;;;;;;;;;;;;;;;2115491;28;19923;-44
2022/08/21 02:16:44;;;;;;;;;;;;;;;;;;2115271;28;19924;-45
2022/08/21 02:17:45;;;;;;;;;;;;;;;;;;2115367;28;20018;-44
2022/08/21 02:18:46;;;;;;;;;;;;;;;;;;2115333;28;19927;-45
2022/08/21 02:19:47;;;;;;;;;;;;;;;;;;2115321;28;20393;-45
2022/08/21 02:20:48;;;;;;;;;;;;;;;;;;2115180;28;19936;-45
2022/08/21 02:21:49;;;;;;;;;;;;;;;;;;2115260;28;20022;-45
2022/08/21 02:22:50;;;;;;;;;;;;;;;;;;2115346;28;19930;-44
2022/08/21 02:23:50;;;;;;;;;;;;;;;;;;2115413;28;19931;-45
2022/08/21 02:24:51;;;;;;;;;;;;;;;;;;2115471;28;19971;-45
2022/08/21 02:25:55;;;;;;;;;;;;;;;;;;2115504;28;19928;-46
2022/08/21 02:26:56;;;;;;;;;;;;;;;;;;2115333;28;19948;-48
2022/08/21 02:27:57;;;;;;;;;;;;;;;;;;2115244;28;20266;-46
2022/08/21 02:28:58;;;;;;;;;;;;;;;;;;2115363;28;19952;-46
2022/08/21 02:29:58;;;;;;;;;;;;;;;;;;2115138;28;20364;-46
2022/08/21 02:30:59;;;;;;;;;;;;;;;;;;2115363;28;19928;-45
2022/08/21 02:32:00;;;;;;;;;;;;;;;;;;2115233;28;20052;-45
2022/08/21 02:33:01;;;;;;;;;;;;;;;;;;2115143;28;20351;-45
2022/08/21 02:34:02;;;;;;;;;;;;;;;;;;2115530;28;20397;-45
2022/08/21 02:35:03;;;;;;;;;;;;;;;;;;2115230;28;19924;-45
2022/08/21 02:36:04;;;;;;;;;;;;;;;;;;2115312;28;19928;-45
2022/08/21 02:37:05;;;;;;;;;;;;;;;;;;2115347;28;20006;-45
2022/08/21 02:38:05;;;;;;;;;;;;;;;;;;2114551;28;20014;-45
2022/08/21 02:39:06;;;;;;;;;;;;;;;;;;2114839;28;20188;-45
2022/08/21 02:40:09;;;;;;;;;;;;;;;;;;2115214;28;19928;-45
2022/08/21 02:41:10;;;;;;;;;;;;;;;;;;2115139;28;19924;-45
2022/08/21 02:42:11;;;;;;;;;;;;;;;;;;2115331;28;19972;-46
2022/08/21 02:43:12;;;;;;;;;;;;;;;;;;2115115;28;20011;-44
2022/08/21 02:44:13;;;;;;;;;;;;;;;;;;2115310;28;20380;-44
2022/08/21 02:45:14;;;;;;;;;;;;;;;;;;2115178;28;20014;-45
2022/08/21 02:46:15;;;;;;;;;;;;;;;;;;2115304;28;20314;-44
2022/08/21 02:47:16;;;;;;;;;;;;;;;;;;2115319;28;20097;-45
2022/08/21 02:48:16;;;;;;;;;;;;;;;;;;2115002;28;20327;-44
2022/08/21 02:49:17;;;;;;;;;;;;;;;;;;2115101;28;19924;-44
2022/08/21 02:50:18;;;;;;;;;;;;;;;;;;2115116;28;19924;-45
2022/08/21 02:51:19;;;;;;;;;;;;;;;;;;2115271;28;19924;-45
2022/08/21 02:52:21;;;;;;;;;;;;;;;;;;2115147;28;20073;-44
2022/08/21 02:53:22;;;;;;;;;;;;;;;;;;2115356;28;20003;-44
2022/08/21 02:54:23;;;;;;;;;;;;;;;;;;2115028;28;20373;-48
2022/08/21 02:55:26;;;;;;;;;;;;;;;;;;2115405;28;19930;-44
2022/08/21 02:56:27;;;;;;;;;;;;;;;;;;2115244;28;19927;-47
2022/08/21 02:57:32;;;;;;;;;;;;;;;;;;2115000;28;20301;-45
2022/08/21 02:58:33;;;;;;;;;;;;;;;;;;2115063;28;20425;-44
2022/08/21 02:59:33;;;;;;;;;;;;;;;;;;2115037;28;20018;-45
2022/08/21 03:00:34;;;;;;;;;;;;;;;;;;2115358;28;20080;-45
2022/08/21 03:01:37;;;;;;;;;;;;;;;;;;2115265;28;20022;-45
2022/08/21 03:02:37;;;;;;;;;;;;;;;;;;2114947;28;20408;-44
2022/08/21 03:03:39;;;;;;;;;;;;;;;;;;2115256;28;19967;-45
2022/08/21 03:04:39;;;;;;;;;;;;;;;;;;2115191;28;19924;-44
2022/08/21 03:05:45;;;;;;;;;;;;;;;;;;2115035;28;19923;-47
2022/08/21 03:06:45;;;;;;;;;;;;;;;;;;2115096;28;20052;-44
2022/08/21 03:07:46;;;;;;;;;;;;;;;;;;2115308;28;19923;-45
2022/08/21 03:08:47;;;;;;;;;;;;;;;;;;2114697;28;19931;-44
2022/08/21 03:09:48;;;;;;;;;;;;;;;;;;2115158;28;19923;-45
2022/08/21 03:10:55;;;;;;;;;;;;;;;;;;2114938;28;20339;-45
2022/08/21 03:11:57;;;;;;;;;;;;;;;;;;2106689;28;19977;-44
2022/08/21 03:12:58;;;;;;;;;;;;;;;;;;2106520;28;20356;-45
2022/08/21 03:13:59;;;;;;;;;;;;;;;;;;2106557;28;19931;-46
2022/08/21 03:15:00;;;;;;;;;;;;;;;;;;2106550;28;19966;-45
2022/08/21 03:16:01;;;;;;;;;;;;;;;;;;2106797;28;19959;-44
2022/08/21 03:17:01;;;;;;;;;;;;;;;;;;2106496;28;20573;-44
2022/08/21 03:18:03;;;;;;;;;;;;;;;;;;2106647;28;19930;-45
2022/08/21 03:19:04;;;;;;;;;;;;;;;;;;2106603;28;20027;-45
2022/08/21 03:20:05;;;;;;;;;;;;;;;;;;2106654;28;19928;-47
2022/08/21 03:21:06;;;;;;;;;;;;;;;;;;2106520;28;20011;-47
2022/08/21 03:22:07;;;;;;;;;;;;;;;;;;2106422;28;19969;-47
2022/08/21 03:23:07;;;;;;;;;;;;;;;;;;2106980;28;19999;-47
2022/08/21 03:24:13;;;;;;;;;;;;;;;;;;2106384;28;20444;-44
2022/08/21 03:25:14;;;;;;;;;;;;;;;;;;2106630;28;20015;-45
2022/08/21 03:26:15;;;;;;;;;;;;;;;;;;2106409;28;20399;-44
2022/08/21 03:27:16;;;;;;;;;;;;;;;;;;2106683;28;20053;-44
2022/08/21 03:28:17;;;;;;;;;;;;;;;;;;2106702;28;19989;-45
2022/08/21 03:29:18;;;;;;;;;;;;;;;;;;2106551;28;20250;-45
2022/08/21 03:30:19;;;;;;;;;;;;;;;;;;2106445;28;19931;-47
2022/08/21 03:31:21;;;;;;;;;;;;;;;;;;2106329;28;20007;-44
2022/08/21 03:32:22;;;;;;;;;;;;;;;;;;2106547;28;19928;-45
2022/08/21 03:33:23;;;;;;;;;;;;;;;;;;2106706;28;20007;-44
2022/08/21 03:34:24;;;;;;;;;;;;;;;;;;2106589;28;20019;-45
2022/08/21 03:35:25;;;;;;;;;;;;;;;;;;2106453;28;20023;-44
2022/08/21 03:36:26;;;;;;;;;;;;;;;;;;2106406;28;20014;-46
2022/08/21 03:37:27;;;;;;;;;;;;;;;;;;2106684;28;19968;-45
2022/08/21 03:38:28;;;;;;;;;;;;;;;;;;2106711;28;20296;-44
2022/08/21 03:39:29;;;;;;;;;;;;;;;;;;2106564;28;20336;-45
2022/08/21 03:40:30;;;;;;;;;;;;;;;;;;2106536;28;20041;-45
2022/08/21 03:41:31;;;;;;;;;;;;;;;;;;2106303;28;20363;-45
2022/08/21 03:42:32;;;;;;;;;;;;;;;;;;2106319;28;19924;-44
2022/08/21 03:43:33;;;;;;;;;;;;;;;;;;2106481;28;19931;-46
2022/08/21 03:44:34;;;;;;;;;;;;;;;;;;2106343;28;19924;-45
2022/08/21 03:45:35;;;;;;;;;;;;;;;;;;2106419;28;19973;-45
2022/08/21 03:46:36;;;;;;;;;;;;;;;;;;2106243;28;20481;-44
2022/08/21 03:47:36;;;;;;;;;;;;;;;;;;2106509;28;19959;-44
2022/08/21 03:48:37;;;;;;;;;;;;;;;;;;2106370;28;19924;-44
2022/08/21 03:49:38;;;;;;;;;;;;;;;;;;2106094;28;19924;-44
2022/08/21 03:50:39;;;;;;;;;;;;;;;;;;2106379;28;19931;-45
2022/08/21 03:51:41;;;;;;;;;;;;;;;;;;2106246;28;19924;-44
2022/08/21 03:52:42;;;;;;;;;;;;;;;;;;2106298;28;19928;-44
2022/08/21 03:53:43;;;;;;;;;;;;;;;;;;2106444;28;19924;-45
2022/08/21 03:54:43;;;;;;;;;;;;;;;;;;2106359;28;20022;-45
2022/08/21 03:55:45;;;;;;;;;;;;;;;;;;2106234;28;19998;-45
2022/08/21 03:56:45;;;;;;;;;;;;;;;;;;2106335;28;20014;-45
2022/08/21 03:57:46;;;;;;;;;;;;;;;;;;2106209;28;20403;-48
2022/08/21 03:58:48;;;;;;;;;;;;;;;;;;2106417;28;20011;-44
2022/08/21 03:59:49;;;;;;;;;;;;;;;;;;2106512;28;19931;-44
2022/08/21 04:00:50;;;;;;;;;;;;;;;;;;2106308;28;20010;-44
2022/08/21 04:01:50;;;;;;;;;;;;;;;;;;2106368;28;19924;-46
2022/08/21 04:02:51;;;;;;;;;;;;;;;;;;2106380;28;19924;-45
2022/08/21 04:03:52;;;;;;;;;;;;;;;;;;2106673;28;19931;-44
2022/08/21 04:04:53;;;;;;;;;;;;;;;;;;2107270;28;20389;-47
2022/08/21 04:05:54;;;;;;;;;;;;;;;;;;2114796;28;19939;-46
2022/08/21 04:06:55;;;;;;;;;;;;;;;;;;2114367;28;19955;-45
2022/08/21 04:07:56;;;;;;;;;;;;;;;;;;2114656;28;20035;-44
2022/08/21 04:08:57;;;;;;;;;;;;;;;;;;2114531;28;19931;-45
2022/08/21 04:09:57;;;;;;;;;;;;;;;;;;2114723;28;19931;-44
2022/08/21 04:10:58;;;;;;;;;;;;;;;;;;2114879;28;20060;-46
2022/08/21 04:11:59;;;;;;;;;;;;;;;;;;2106118;28;20018;-48
2022/08/21 04:13:00;;;;;;;;;;;;;;;;;;2106123;28;20401;-44
2022/08/21 04:14:01;;;;;;;;;;;;;;;;;;2106443;28;19998;-44
2022/08/21 04:15:02;;;;;;;;;;;;;;;;;;2106408;28;19975;-45
2022/08/21 04:16:03;;;;;;;;;;;;;;;;;;2106184;28;20369;-45
2022/08/21 04:17:04;;;;;;;;;;;;;;;;;;2106110;28;20008;-44
2022/08/21 04:18:05;;;;;;;;;;;;;;;;;;2106201;28;19928;-45
2022/08/21 04:19:06;;;;;;;;;;;;;;;;;;2106269;28;20019;-44
2022/08/21 04:20:07;;;;;;;;;;;;;;;;;;2106161;28;19924;-44
2022/08/21 04:21:08;;;;;;;;;;;;;;;;;;2106137;28;20454;-44
2022/08/21 04:22:08;;;;;;;;;;;;;;;;;;2106078;28;20450;-46
2022/08/21 04:23:09;;;;;;;;;;;;;;;;;;2106297;28;19959;-45
2022/08/21 04:24:10;;;;;;;;;;;;;;;;;;2106219;28;19924;-45
2022/08/21 04:25:11;;;;;;;;;;;;;;;;;;2106252;28;19928;-44
2022/08/21 04:26:12;;;;;;;;;;;;;;;;;;2106093;28;19924;-45
2022/08/21 04:27:13;;;;;;;;;;;;;;;;;;2106090;28;19924;-45
2022/08/21 04:28:14;;;;;;;;;;;;;;;;;;2106063;28;19924;-46
2022/08/21 04:29:14;;;;;;;;;;;;;;;;;;2106085;28;19924;-46
2022/08/21 04:30:15;;;;;;;;;;;;;;;;;;2106101;28;20270;-45
2022/08/21 04:31:16;;;;;;;;;;;;;;;;;;2106099;28;20041;-46
2022/08/21 04:32:17;;;;;;;;;;;;;;;;;;2106293;28;19924;-45
2022/08/21 04:33:36;;;;;;;;;;;;;;;;;;2106537;28;19928;-46
2022/08/21 04:34:37;;;;;;;;;;;;;;;;;;2106201;28;20011;-45
2022/08/21 04:35:38;;;;;;;;;;;;;;;;;;2106230;28;19924;-45
2022/08/21 04:36:39;;;;;;;;;;;;;;;;;;2106347;28;20093;-46
2022/08/21 04:37:40;;;;;;;;;;;;;;;;;;2106080;28;19924;-44
2022/08/21 04:38:42;;;;;;;;;;;;;;;;;;2106193;28;19934;-45
2022/08/21 04:39:45;;;;;;;;;;;;;;;;;;2106216;28;19927;-46
2022/08/21 04:40:48;;;;;;;;;;;;;;;;;;2106008;28;19938;-44
2022/08/21 04:41:49;;;;;;;;;;;;;;;;;;2106107;28;20065;-45
2022/08/21 04:42:50;;;;;;;;;;;;;;;;;;2106273;28;20353;-45
2022/08/21 04:43:51;;;;;;;;;;;;;;;;;;2106202;28;19924;-46
2022/08/21 04:44:52;;;;;;;;;;;;;;;;;;2106199;28;20019;-47
2022/08/21 04:45:53;;;;;;;;;;;;;;;;;;2106162;28;19924;-45
2022/08/21 04:46:53;;;;;;;;;;;;;;;;;;2105937;28;19924;-44
2022/08/21 04:47:54;;;;;;;;;;;;;;;;;;2106075;28;19924;-45
2022/08/21 04:48:55;;;;;;;;;;;;;;;;;;2105908;28;20034;-45
2022/08/21 04:49:56;;;;;;;;;;;;;;;;;;2106057;28;19932;-46
2022/08/21 04:50:57;;;;;;;;;;;;;;;;;;2106015;28;20418;-45
2022/08/21 04:51:58;;;;;;;;;;;;;;;;;;2105911;28;19924;-46
2022/08/21 04:52:59;;;;;;;;;;;;;;;;;;2106147;28;19963;-45
2022/08/21 04:54:00;;;;;;;;;;;;;;;;;;2106390;28;19924;-44
2022/08/21 04:55:01;;;;;;;;;;;;;;;;;;2105941;28;20388;-46
2022/08/21 04:56:02;;;;;;;;;;;;;;;;;;2106061;28;19924;-46
2022/08/21 04:57:03;;;;;;;;;;;;;;;;;;2106230;28;19928;-45
2022/08/21 04:58:04;;;;;;;;;;;;;;;;;;2106029;28;19971;-45
2022/08/21 04:59:05;;;;;;;;;;;;;;;;;;2106081;28;19935;-46
2022/08/21 05:00:06;;;;;;;;;;;;;;;;;;2106176;28;19950;-45
2022/08/21 05:01:09;;;;;;;;;;;;;;;;;;2106993;28;20040;-45
2022/08/21 05:02:10;;;;;;;;;;;;;;;;;;2115876;28;19931;-44
2022/08/21 05:03:11;;;;;;;;;;;;;;;;;;2116062;28;19943;-45
2022/08/21 05:04:12;;;;;;;;;;;;;;;;;;2115865;28;19924;-44
2022/08/21 05:05:13;;;;;;;;;;;;;;;;;;2115963;28;20437;-46
2022/08/21 05:06:14;;;;;;;;;;;;;;;;;;2115959;28;19967;-44
2022/08/21 05:07:14;;;;;;;;;;;;;;;;;;2115912;28;20034;-44
2022/08/21 05:08:15;;;;;;;;;;;;;;;;;;2116249;28;20020;-45
2022/08/21 05:09:16;;;;;;;;;;;;;;;;;;2115792;28;20002;-45
2022/08/21 05:10:17;;;;;;;;;;;;;;;;;;2115858;28;20220;-46
2022/08/21 05:11:19;;;;;;;;;;;;;;;;;;2112733;28;19946;-46
2022/08/21 05:12:21;;;;;;;;;;;;;;;;;;2107294;28;19999;-46
2022/08/21 05:13:22;;;;;;;;;;;;;;;;;;2107457;28;19924;-45
2022/08/21 05:14:23;;;;;;;;;;;;;;;;;;2107455;28;19924;-45
2022/08/21 05:15:24;;;;;;;;;;;;;;;;;;2107855;28;19931;-46
2022/08/21 05:16:25;;;;;;;;;;;;;;;;;;2107676;28;20031;-45
2022/08/21 05:17:31;;;;;;;;;;;;;;;;;;2107544;28;20007;-48
2022/08/21 05:18:32;;;;;;;;;;;;;;;;;;2107360;28;20018;-45
2022/08/21 05:19:33;;;;;;;;;;;;;;;;;;2107545;28;19974;-46
2022/08/21 05:20:34;;;;;;;;;;;;;;;;;;2107404;28;20373;-45
2022/08/21 05:21:35;;;;;;;;;;;;;;;;;;2107615;28;19932;-45
2022/08/21 05:22:36;;;;;;;;;;;;;;;;;;2107479;28;19996;-46
2022/08/21 05:23:37;;;;;;;;;;;;;;;;;;2107613;28;19924;-46
2022/08/21 05:24:38;;;;;;;;;;;;;;;;;;2107416;28;20003;-45
2022/08/21 05:25:39;;;;;;;;;;;;;;;;;;2107258;28;20003;-46
2022/08/21 05:26:40;;;;;;;;;;;;;;;;;;2107427;28;20023;-46
2022/08/21 05:27:46;;;;;;;;;;;;;;;;;;2107290;28;19963;-46
2022/08/21 05:28:47;;;;;;;;;;;;;;;;;;2107567;28;20331;-45
2022/08/21 05:29:48;;;;;;;;;;;;;;;;;;2107063;28;19993;-46
2022/08/21 05:30:48;;;;;;;;;;;;;;;;;;2107119;28;20316;-44
2022/08/21 05:31:49;;;;;;;;;;;;;;;;;;2108033;28;19924;-47
2022/08/21 05:32:51;;;;;;;;;;;;;;;;;;2107225;28;19924;-45
2022/08/21 05:33:52;;;;;;;;;;;;;;;;;;2107641;28;19928;-45
2022/08/21 05:34:53;;;;;;;;;;;;;;;;;;2107215;28;19924;-46
2022/08/21 05:35:55;;;;;;;;;;;;;;;;;;2107222;28;19976;-46
2022/08/21 05:36:56;;;;;;;;;;;;;;;;;;2107348;28;20026;-45
2022/08/21 05:37:57;;;;;;;;;;;;;;;;;;2107243;28;20308;-46
2022/08/21 05:38:57;;;;;;;;;;;;;;;;;;2107125;28;20018;-45
2022/08/21 05:39:58;;;;;;;;;;;;;;;;;;2107216;28;20377;-46
2022/08/21 05:41:20;;;;;;;;;;;;;;;;;;2107460;28;19930;-45
2022/08/21 05:42:20;;;;;;;;;;;;;;;;;;2107233;28;20018;-45
2022/08/21 05:43:21;;;;;;;;;;;;;;;;;;2107155;28;19986;-48
2022/08/21 05:44:22;;;;;;;;;;;;;;;;;;2107434;28;19960;-46
2022/08/21 05:45:23;;;;;;;;;;;;;;;;;;2107290;28;20065;-48
2022/08/21 05:46:42;;;;;;;;;;;;;;;;;;2107230;28;19942;-44
2022/08/21 05:47:43;;;;;;;;;;;;;;;;;;2107123;28;19963;-45
2022/08/21 05:48:44;;;;;;;;;;;;;;;;;;2107442;28;19939;-45
2022/08/21 05:49:45;;;;;;;;;;;;;;;;;;2107095;28;20392;-44
2022/08/21 05:50:46;;;;;;;;;;;;;;;;;;2107238;28;19934;-46
2022/08/21 05:51:47;;;;;;;;;;;;;;;;;;2107014;28;20022;-47
2022/08/21 05:52:48;;;;;;;;;;;;;;;;;;2107239;28;19951;-46
2022/08/21 05:53:48;;;;;;;;;;;;;;;;;;2107436;28;19924;-45
2022/08/21 05:54:49;;;;;;;;;;;;;;;;;;2107044;28;19924;-46
2022/08/21 05:55:50;;;;;;;;;;;;;;;;;;2107538;28;19977;-45
2022/08/21 05:56:51;;;;;;;;;;;;;;;;;;2106989;28;19925;-45
2022/08/21 05:57:52;;;;;;;;;;;;;;;;;;2112219;28;20061;-45
2022/08/21 05:58:53;;;;;;;;;;;;;;;;;;2115900;28;19924;-46
2022/08/21 05:59:54;;;;;;;;;;;;;;;;;;2115921;28;19923;-46
2022/08/21 06:00:55;;;;;;;;;;;;;;;;;;2115458;28;20281;-44
2022/08/21 06:01:56;;;;;;;;;;;;;;;;;;2115405;28;19981;-49
2022/08/21 06:02:57;;;;;;;;;;;;;;;;;;2115535;28;19924;-47
2022/08/21 06:03:58;;;;;;;;;;;;;;;;;;2115448;28;19970;-45
2022/08/21 06:04:59;;;;;;;;;;;;;;;;;;2115444;28;20368;-45
2022/08/21 06:06:00;;;;;;;;;;;;;;;;;;2116002;28;20011;-45
2022/08/21 06:07:00;;;;;;;;;;;;;;;;;;2115327;28;20018;-45
2022/08/21 06:08:01;;;;;;;;;;;;;;;;;;2115384;28;20022;-45
2022/08/21 06:09:02;;;;;;;;;;;;;;;;;;2115410;28;20014;-46
2022/08/21 06:10:03;;;;;;;;;;;;;;;;;;2115580;28;20307;-47
2022/08/21 06:11:05;;;;;;;;;;;;;;;;;;2114450;28;19928;-46
2022/08/21 06:12:07;;;;;;;;;;;;;;;;;;2106915;28;19924;-45
2022/08/21 06:13:07;;;;;;;;;;;;;;;;;;2107014;28;20034;-46
2022/08/21 06:14:09;;;;;;;;;;;;;;;;;;2107076;28;19924;-45
2022/08/21 06:15:09;;;;;;;;;;;;;;;;;;2106842;28;20022;-47
2022/08/21 06:16:10;;;;;;;;;;;;;;;;;;2107006;28;19924;-46
2022/08/21 06:17:11;;;;;;;;;;;;;;;;;;2107412;28;20017;-45
2022/08/21 06:18:12;;;;;;;;;;;;;;;;;;2107187;28;19987;-45
2022/08/21 06:19:13;;;;;;;;;;;;;;;;;;2107324;28;19971;-45
2022/08/21 06:20:14;;;;;;;;;;;;;;;;;;2107192;28;20031;-45
2022/08/21 06:21:15;;;;;;;;;;;;;;;;;;2107201;28;19959;-46
2022/08/21 06:22:16;;;;;;;;;;;;;;;;;;2106969;28;19928;-46
2022/08/21 06:23:16;;;;;;;;;;;;;;;;;;2106910;28;20396;-45
2022/08/21 06:24:17;;;;;;;;;;;;;;;;;;2107017;28;20013;-46
2022/08/21 06:25:19;;;;;;;;;;;;;;;;;;2107453;28;19960;-47
2022/08/21 06:26:20;;;;;;;;;;;;;;;;;;2107013;28;20401;-44
2022/08/21 06:27:21;;;;;;;;;;;;;;;;;;2107154;28;19963;-46
2022/08/21 06:28:27;;;;;;;;;;;;;;;;;;2106923;28;19946;-48
2022/08/21 06:29:27;;;;;;;;;;;;;;;;;;2107303;28;19924;-45
2022/08/21 06:30:28;;;;;;;;;;;;;;;;;;2107036;28;20133;-44
2022/08/21 06:31:29;;;;;;;;;;;;;;;;;;2107057;28;19924;-46
2022/08/21 06:32:30;;;;;;;;;;;;;;;;;;2106845;28;19924;-47
2022/08/21 06:33:32;;;;;;;;;;;;;;;;;;2107044;28;19971;-45
2022/08/21 06:34:33;;;;;;;;;;;;;;;;;;2107043;28;19924;-45
2022/08/21 06:35:34;;;;;;;;;;;;;;;;;;2106798;28;20007;-46
2022/08/21 06:36:35;;;;;;;;;;;;;;;;;;2106756;28;20335;-45
2022/08/21 06:37:36;;;;;;;;;;;;;;;;;;2106763;28;19968;-44
2022/08/21 06:38:37;;;;;;;;;;;;;;;;;;2107645;28;19924;-46
2022/08/21 06:39:38;;;;;;;;;;;;;;;;;;2106744;28;19924;-48
2022/08/21 06:40:42;;;;;;;;;;;;;;;;;;2107221;28;19966;-47
2022/08/21 06:41:47;;;;;;;;;;;;;;;;;;2107029;28;19969;-45
2022/08/21 06:42:48;;;;;;;;;;;;;;;;;;2106706;28;19924;-45
2022/08/21 06:43:49;;;;;;;;;;;;;;;;;;2106925;28;19924;-46
2022/08/21 06:44:50;;;;;;;;;;;;;;;;;;2106938;28;20010;-45
2022/08/21 06:45:51;;;;;;;;;;;;;;;;;;2106956;28;19924;-46
2022/08/21 06:46:52;;;;;;;;;;;;;;;;;;2106629;28;19924;-46
2022/08/21 06:47:53;;;;;;;;;;;;;;;;;;2106878;28;19924;-45
2022/08/21 06:48:54;;;;;;;;;;;;;;;;;;2106766;28;19924;-44
2022/08/21 06:49:55;;;;;;;;;;;;;;;;;;2106596;28;20399;-45
2022/08/21 06:50:56;;;;;;;;;;;;;;;;;;2106725;28;19969;-45
2022/08/21 06:51:57;;;;;;;;;;;;;;;;;;2106624;28;20036;-47
2022/08/21 06:52:57;;;;;;;;;;;;;;;;;;2106655;28;20306;-44
2022/08/21 06:53:58;;;;;;;;;;;;;;;;;;2110459;28;19959;-45
2022/08/21 06:54:59;;;;;;;;;;;;;;;;;;2115396;28;19924;-46
2022/08/21 06:56:00;;;;;;;;;;;;;;;;;;2115363;28;19985;-44
2022/08/21 06:57:01;;;;;;;;;;;;;;;;;;2115085;28;19923;-46
2022/08/21 06:58:02;;;;;;;;;;;;;;;;;;2115496;28;19928;-47